Time;durP1;ratioP1;P1;durP2;ratioP2;P2;SDS_P1;SDS_P2;PMS_P1;PMS_P2;Temp;Humidity;BMP_temperature;BMP_pressure;BME280_temperature;BME280_humidity;BME280_pressure;Samples;Min_cycle;Max_cycle;Signal;HPM_P1;HPM_P2
2021/05/24 00:00:53;;;;;;;2.67;1.43;;;4.10;99.90;;;;;;2056635;28;20190;-70
2021/05/24 00:01:54;;;;;;;2.93;1.67;;;4.10;99.90;;;;;;2072062;28;20604;-70
2021/05/24 00:02:55;;;;;;;3.00;1.47;;;4.10;99.90;;;;;;2081419;28;20220;-70
2021/05/24 00:03:56;;;;;;;3.93;1.70;;;4.10;99.90;;;;;;2072648;28;20440;-70
2021/05/24 00:04:57;;;;;;;3.65;1.60;;;4.20;99.90;;;;;;2072696;28;20587;-70
2021/05/24 00:05:58;;;;;;;2.13;1.73;;;4.20;99.90;;;;;;2082275;28;20174;-68
2021/05/24 00:06:59;;;;;;;3.05;1.88;;;4.10;99.90;;;;;;2072803;28;20836;-71
2021/05/24 00:08:01;;;;;;;2.63;1.80;;;4.20;99.90;;;;;;2072625;28;20193;-70
2021/05/24 00:09:02;;;;;;;1.70;1.55;;;4.20;99.90;;;;;;2083765;28;20273;-70
2021/05/24 00:10:07;;;;;;;2.78;1.42;;;4.20;99.90;;;;;;2081598;28;20673;-70
2021/05/24 00:11:08;;;;;;;2.47;1.60;;;4.20;99.90;;;;;;2080957;28;20181;-70
2021/05/24 00:12:09;;;;;;;4.10;1.60;;;4.20;99.90;;;;;;2072492;28;20565;-70
2021/05/24 00:13:13;;;;;;;3.65;1.92;;;4.20;99.90;;;;;;2072963;28;20246;-70
2021/05/24 00:14:17;;;;;;;2.72;1.65;;;4.20;99.90;;;;;;2080842;28;20225;-70
2021/05/24 00:15:29;;;;;;;1.92;1.70;;;4.20;99.90;;;;;;2081366;28;20183;-70
2021/05/24 00:16:29;;;;;;;2.28;1.58;;;4.10;99.90;;;;;;2080740;28;20173;-70
2021/05/24 00:17:30;;;;;;;2.07;1.60;;;4.20;99.90;;;;;;2081184;28;20186;-70
2021/05/24 00:18:31;;;;;;;2.10;1.70;;;4.20;99.90;;;;;;2081389;28;20182;-70
2021/05/24 00:19:32;;;;;;;3.13;1.97;;;4.20;99.90;;;;;;2081590;28;20182;-70
2021/05/24 00:20:37;;;;;;;8.20;2.05;;;4.10;99.90;;;;;;2080456;28;20178;-70
2021/05/24 00:21:38;;;;;;;4.05;1.95;;;4.10;99.90;;;;;;2073141;28;20232;-70
2021/05/24 00:22:39;;;;;;;2.80;1.67;;;4.10;99.90;;;;;;2080766;28;20722;-71
2021/05/24 00:23:40;;;;;;;4.73;1.93;;;4.10;99.90;;;;;;2080942;28;20222;-71
2021/05/24 00:24:41;;;;;;;3.00;1.70;;;4.10;99.90;;;;;;2080545;28;20652;-70
2021/05/24 00:25:42;;;;;;;2.60;1.70;;;4.10;99.90;;;;;;2080769;28;20181;-71
2021/05/24 00:26:42;;;;;;;3.92;1.70;;;4.10;99.90;;;;;;2072490;28;20901;-71
2021/05/24 00:27:44;;;;;;;3.47;1.80;;;4.10;99.90;;;;;;2081090;28;20184;-71
2021/05/24 00:28:45;;;;;;;3.05;1.70;;;4.10;99.90;;;;;;2080691;28;20705;-71
2021/05/24 00:29:45;;;;;;;3.90;1.90;;;4.20;99.90;;;;;;2080813;28;20178;-70
2021/05/24 00:30:49;;;;;;;3.77;1.57;;;4.20;99.90;;;;;;2080630;28;20273;-71
2021/05/24 00:31:50;;;;;;;3.35;1.50;;;4.20;99.90;;;;;;2072717;28;20206;-70
2021/05/24 00:32:51;;;;;;;3.67;1.70;;;4.20;99.90;;;;;;2080721;28;20208;-71
2021/05/24 00:33:51;;;;;;;4.13;1.70;;;4.20;99.90;;;;;;2080728;28;20823;-71
2021/05/24 00:34:52;;;;;;;1.63;1.53;;;4.20;99.90;;;;;;2080823;28;20268;-71
2021/05/24 00:35:53;;;;;;;2.63;1.80;;;4.20;99.90;;;;;;2081275;28;20212;-71
2021/05/24 00:36:55;;;;;;;3.50;1.80;;;4.10;99.90;;;;;;2081529;28;20209;-71
2021/05/24 00:37:56;;;;;;;2.83;1.70;;;4.20;99.90;;;;;;2088898;28;20179;-71
2021/05/24 00:38:57;;;;;;;3.17;1.83;;;4.20;99.90;;;;;;2080664;28;20181;-71
2021/05/24 00:39:57;;;;;;;4.20;1.80;;;4.10;99.90;;;;;;2080628;28;20175;-71
2021/05/24 00:40:58;;;;;;;2.80;1.50;;;4.20;99.90;;;;;;2081230;28;20253;-71
2021/05/24 00:41:59;;;;;;;2.92;2.00;;;4.20;99.90;;;;;;2080201;28;20181;-72
2021/05/24 00:43:02;;;;;;;5.63;1.80;;;4.20;99.90;;;;;;2080675;28;20188;-71
2021/05/24 00:44:04;;;;;;;3.10;1.63;;;4.10;99.90;;;;;;2080290;28;20225;-71
2021/05/24 00:45:08;;;;;;;2.20;1.42;;;4.10;99.90;;;;;;2081177;28;20734;-72
2021/05/24 00:46:08;;;;;;;4.22;1.90;;;4.20;99.90;;;;;;2080642;28;20261;-70
2021/05/24 00:47:09;;;;;;;2.53;1.40;;;4.20;99.90;;;;;;2080509;28;20709;-71
2021/05/24 00:48:10;;;;;;;3.27;1.83;;;4.20;99.90;;;;;;2081130;28;20267;-71
2021/05/24 00:49:11;;;;;;;2.25;1.55;;;4.20;99.90;;;;;;2081221;28;20208;-71
2021/05/24 00:50:13;;;;;;;2.00;1.60;;;4.20;99.90;;;;;;2081102;28;20189;-71
2021/05/24 00:51:13;;;;;;;2.35;1.50;;;4.20;99.90;;;;;;2080903;28;20203;-71
2021/05/24 00:52:15;;;;;;;2.10;1.53;;;4.20;99.90;;;;;;2088530;28;20714;-71
2021/05/24 00:53:15;;;;;;;3.25;1.80;;;4.10;99.90;;;;;;2088390;28;20212;-71
2021/05/24 00:54:16;;;;;;;2.90;1.40;;;4.10;99.90;;;;;;2080837;28;20197;-71
2021/05/24 00:55:17;;;;;;;2.57;1.70;;;4.20;99.90;;;;;;2080435;28;20170;-71
2021/05/24 00:56:21;;;;;;;2.10;1.50;;;4.20;99.90;;;;;;2080826;28;20219;-71
2021/05/24 00:57:22;;;;;;;1.85;1.60;;;4.20;99.90;;;;;;2083163;28;20173;-71
2021/05/24 00:58:23;;;;;;;2.60;1.50;;;4.10;99.90;;;;;;2083689;28;20319;-71
2021/05/24 00:59:24;;;;;;;3.63;1.70;;;4.20;99.90;;;;;;2073673;28;20546;-72
2021/05/24 01:00:38;;;;;;;2.35;1.60;;;4.20;99.90;;;;;;2080452;28;20215;-71
2021/05/24 01:01:38;;;;;;;2.53;1.60;;;4.20;99.90;;;;;;2081054;28;20174;-71
2021/05/24 01:02:39;;;;;;;2.40;1.63;;;4.20;99.90;;;;;;2081146;28;20232;-72
2021/05/24 01:03:41;;;;;;;3.53;1.63;;;4.20;99.90;;;;;;2080852;28;20184;-70
2021/05/24 01:04:41;;;;;;;3.90;1.60;;;4.20;99.90;;;;;;2081076;28;20185;-70
2021/05/24 01:05:44;;;;;;;1.97;1.60;;;4.20;99.90;;;;;;2081309;28;20184;-71
2021/05/24 01:06:47;;;;;;;3.83;1.50;;;4.10;99.90;;;;;;2080424;28;20578;-70
2021/05/24 01:07:48;;;;;;;3.33;1.88;;;4.10;99.90;;;;;;2073968;28;20611;-71
2021/05/24 01:08:49;;;;;;;2.63;1.60;;;4.10;99.90;;;;;;2080372;28;20292;-71
2021/05/24 01:09:50;;;;;;;2.10;1.47;;;4.10;99.90;;;;;;2081287;28;20678;-70
2021/05/24 01:10:51;;;;;;;2.30;1.43;;;4.10;99.90;;;;;;2081100;28;20188;-71
2021/05/24 01:11:52;;;;;;;4.30;2.10;;;4.00;99.90;;;;;;2080847;28;20180;-70
2021/05/24 01:12:53;;;;;;;2.60;1.40;;;4.10;99.90;;;;;;2080275;28;20209;-70
2021/05/24 01:13:54;;;;;;;1.80;1.47;;;4.00;99.90;;;;;;2080349;28;20317;-70
2021/05/24 01:14:54;;;;;;;4.72;1.70;;;4.00;99.90;;;;;;2072056;28;20178;-71
2021/05/24 01:15:55;;;;;;;3.47;1.40;;;4.00;99.90;;;;;;2080406;28;20831;-70
2021/05/24 01:16:56;;;;;;;2.50;1.77;;;4.10;99.90;;;;;;2081038;28;20180;-70
2021/05/24 01:17:59;;;;;;;4.77;1.80;;;4.00;99.90;;;;;;2081285;28;20246;-70
2021/05/24 01:19:03;;;;;;;1.42;1.20;;;4.00;99.90;;;;;;2080600;28;20582;-70
2021/05/24 01:20:05;;;;;;;3.17;1.60;;;4.00;99.90;;;;;;2072764;28;20254;-70
2021/05/24 01:21:11;;;;;;;2.90;1.50;;;4.00;99.90;;;;;;2080285;28;20673;-70
2021/05/24 01:22:19;;;;;;;3.25;1.40;;;4.10;99.90;;;;;;2080799;28;20181;-70
2021/05/24 01:23:26;;;;;;;3.35;1.85;;;4.00;99.90;;;;;;2080216;28;20161;-70
2021/05/24 01:24:27;;;;;;;1.73;1.48;;;4.10;99.90;;;;;;2080295;28;20209;-70
2021/05/24 01:25:28;;;;;;;3.07;1.70;;;4.00;99.90;;;;;;2080675;28;20186;-71
2021/05/24 01:26:29;;;;;;;2.00;1.50;;;4.00;99.90;;;;;;2080919;28;20185;-70
2021/05/24 01:27:30;;;;;;;3.53;1.60;;;4.00;99.90;;;;;;2080767;28;20184;-70
2021/05/24 01:28:30;;;;;;;1.50;1.40;;;4.00;99.90;;;;;;2080847;28;20207;-70
2021/05/24 01:29:32;;;;;;;2.77;1.50;;;4.00;99.90;;;;;;2080679;28;20209;-70
2021/05/24 01:30:33;;;;;;;1.67;1.38;;;4.10;99.90;;;;;;2080629;28;20181;-70
2021/05/24 01:31:34;;;;;;;3.25;1.50;;;4.10;99.90;;;;;;2079825;28;20205;-70
2021/05/24 01:32:35;;;;;;;2.97;1.70;;;4.00;99.90;;;;;;2071980;28;20627;-71
2021/05/24 01:33:36;;;;;;;2.03;1.50;;;4.00;99.90;;;;;;2080009;28;20193;-70
2021/05/24 01:34:38;;;;;;;2.00;1.50;;;4.00;99.90;;;;;;2080728;28;20557;-71
2021/05/24 01:35:40;;;;;;;2.47;1.58;;;4.00;99.90;;;;;;2080623;28;20270;-71
2021/05/24 01:36:41;;;;;;;1.38;1.25;;;4.00;99.90;;;;;;2080183;28;20177;-70
2021/05/24 01:37:42;;;;;;;3.63;1.57;;;4.10;99.90;;;;;;2080103;28;20224;-71
2021/05/24 01:38:43;;;;;;;2.87;1.30;;;4.10;99.90;;;;;;2082500;28;20743;-71
2021/05/24 01:39:44;;;;;;;2.05;1.40;;;4.10;99.90;;;;;;2082535;28;20439;-71
2021/05/24 01:40:49;;;;;;;2.53;1.30;;;4.10;99.90;;;;;;2082189;28;20256;-71
2021/05/24 01:41:49;;;;;;;3.03;1.48;;;4.10;99.90;;;;;;2073432;28;20193;-71
2021/05/24 01:42:59;;;;;;;3.73;1.60;;;4.10;99.90;;;;;;2074262;28;20331;-71
2021/05/24 01:44:00;;;;;;;4.15;1.42;;;4.10;99.90;;;;;;2082271;28;20293;-70
2021/05/24 01:45:01;;;;;;;3.30;1.50;;;4.10;99.90;;;;;;2082563;28;20620;-70
2021/05/24 01:46:03;;;;;;;2.28;1.30;;;4.10;99.90;;;;;;2081774;28;20209;-71
2021/05/24 01:47:05;;;;;;;2.13;1.50;;;4.00;99.90;;;;;;2081762;28;20196;-70
2021/05/24 01:48:07;;;;;;;2.60;1.50;;;4.00;99.90;;;;;;2081928;28;20178;-70
2021/05/24 01:49:10;;;;;;;3.10;1.50;;;4.00;99.90;;;;;;2074212;28;20178;-71
2021/05/24 01:50:13;;;;;;;1.90;1.60;;;3.90;99.90;;;;;;2081868;28;20185;-70
2021/05/24 01:51:13;;;;;;;2.15;1.33;;;3.90;99.90;;;;;;2073503;28;20289;-71
2021/05/24 01:52:17;;;;;;;2.50;1.30;;;3.90;99.90;;;;;;2074826;28;20182;-70
2021/05/24 01:53:19;;;;;;;3.15;1.50;;;3.90;99.90;;;;;;2081913;28;20585;-71
2021/05/24 01:54:20;;;;;;;2.03;1.38;;;3.90;99.90;;;;;;2073767;28;20202;-70
2021/05/24 01:55:21;;;;;;;2.80;1.43;;;3.90;99.90;;;;;;2081992;28;20177;-71
2021/05/24 01:56:22;;;;;;;3.05;1.70;;;4.00;99.90;;;;;;2081673;28;20965;-70
2021/05/24 01:57:23;;;;;;;1.60;1.40;;;3.90;99.90;;;;;;2081828;28;20212;-70
2021/05/24 01:58:24;;;;;;;2.07;1.30;;;3.90;99.90;;;;;;2081731;28;20181;-70
2021/05/24 01:59:25;;;;;;;3.45;1.60;;;3.90;99.90;;;;;;2081706;28;20174;-71
2021/05/24 02:00:26;;;;;;;1.93;1.70;;;3.90;99.90;;;;;;2081853;28;20211;-71
2021/05/24 02:01:27;;;;;;;1.48;1.35;;;3.90;99.90;;;;;;2081659;28;20649;-70
2021/05/24 02:02:27;;;;;;;3.07;1.60;;;3.90;99.90;;;;;;2081674;28;20260;-70
2021/05/24 02:03:28;;;;;;;3.70;1.73;;;4.00;99.90;;;;;;2082180;28;20192;-71
2021/05/24 02:04:29;;;;;;;4.13;1.40;;;4.00;99.90;;;;;;2082277;28;20201;-71
2021/05/24 02:05:30;;;;;;;3.75;1.52;;;4.00;99.90;;;;;;2082215;28;20181;-72
2021/05/24 02:06:31;;;;;;;2.33;1.50;;;4.00;99.90;;;;;;2082267;28;20212;-71
2021/05/24 02:07:32;;;;;;;2.80;1.52;;;4.00;99.90;;;;;;2082189;28;20269;-70
2021/05/24 02:08:34;;;;;;;1.97;1.50;;;4.00;99.90;;;;;;2082047;28;20182;-71
2021/05/24 02:09:35;;;;;;;3.05;1.40;;;4.00;99.90;;;;;;2089675;28;20178;-71
2021/05/24 02:10:39;;;;;;;2.40;1.70;;;4.00;99.90;;;;;;2089790;28;20174;-71
2021/05/24 02:11:40;;;;;;;2.28;1.48;;;4.10;99.90;;;;;;2081240;28;20209;-71
2021/05/24 02:12:41;;;;;;;1.83;1.50;;;4.10;99.90;;;;;;2081492;28;20182;-71
2021/05/24 02:13:46;;;;;;;2.07;1.40;;;4.20;99.90;;;;;;2081282;28;20761;-71
2021/05/24 02:14:51;;;;;;;4.65;1.67;;;4.20;99.90;;;;;;2087422;28;20664;-71
2021/05/24 02:15:52;;;;;;;3.03;1.63;;;4.20;99.90;;;;;;2090355;28;20166;-71
2021/05/24 02:16:52;;;;;;;4.20;1.50;;;4.20;99.90;;;;;;2090420;28;20266;-71
2021/05/24 02:17:53;;;;;;;2.20;1.40;;;4.20;99.90;;;;;;2081531;28;20224;-71
2021/05/24 02:18:54;;;;;;;3.60;1.63;;;4.20;99.90;;;;;;2081603;28;20668;-71
2021/05/24 02:19:55;;;;;;;2.65;1.45;;;4.20;99.90;;;;;;2081448;28;20224;-71
2021/05/24 02:20:56;;;;;;;3.53;1.50;;;4.20;99.90;;;;;;2081509;28;20201;-71
2021/05/24 02:21:56;;;;;;;3.13;1.53;;;4.10;99.90;;;;;;2081194;28;20672;-71
2021/05/24 02:22:59;;;;;;;6.17;1.50;;;4.10;99.90;;;;;;2081531;28;20227;-71
2021/05/24 02:23:59;;;;;;;1.60;1.20;;;4.10;99.90;;;;;;2090141;28;20196;-71
2021/05/24 02:25:00;;;;;;;2.50;1.33;;;4.10;99.90;;;;;;2081357;28;20669;-71
2021/05/24 02:26:01;;;;;;;1.83;1.43;;;4.20;99.90;;;;;;2081372;28;20227;-71
2021/05/24 02:27:02;;;;;;;1.70;1.30;;;4.20;99.90;;;;;;2090370;28;20173;-71
2021/05/24 02:28:04;;;;;;;1.70;1.50;;;4.20;99.90;;;;;;2090317;28;20181;-71
2021/05/24 02:29:05;;;;;;;2.25;1.30;;;4.20;99.90;;;;;;2073187;28;20187;-71
2021/05/24 02:30:08;;;;;;;3.35;1.20;;;4.20;99.90;;;;;;2064890;28;20187;-71
2021/05/24 02:31:09;;;;;;;2.50;1.52;;;4.20;99.90;;;;;;2081617;28;20228;-71
2021/05/24 02:32:09;;;;;;;3.65;1.25;;;4.30;99.90;;;;;;2081168;28;20189;-71
2021/05/24 02:33:10;;;;;;;2.43;1.40;;;4.30;99.90;;;;;;2081351;28;20201;-71
2021/05/24 02:34:11;;;;;;;2.13;1.10;;;4.30;99.90;;;;;;2090109;28;20685;-71
2021/05/24 02:35:14;;;;;;;2.43;1.10;;;4.30;99.90;;;;;;2090181;28;20261;-72
2021/05/24 02:36:16;;;;;;;1.40;1.20;;;4.30;99.90;;;;;;2090124;28;20420;-71
2021/05/24 02:37:18;;;;;;;2.47;1.40;;;4.40;99.90;;;;;;2081272;28;20186;-71
2021/05/24 02:38:19;;;;;;;1.63;1.40;;;4.40;99.90;;;;;;2081163;28;20181;-71
2021/05/24 02:39:20;;;;;;;4.20;1.30;;;4.40;99.90;;;;;;2081488;28;20191;-71
2021/05/24 02:40:21;;;;;;;1.03;1.00;;;4.40;99.90;;;;;;2090077;28;20190;-71
2021/05/24 02:41:23;;;;;;;3.53;1.52;;;4.40;99.90;;;;;;2089932;28;20185;-71
2021/05/24 02:42:24;;;;;;;2.67;1.15;;;4.40;99.90;;;;;;2089340;28;20758;-72
2021/05/24 02:43:25;;;;;;;1.60;1.50;;;4.40;99.90;;;;;;2089483;28;20181;-71
2021/05/24 02:44:26;;;;;;;5.70;1.60;;;4.40;99.90;;;;;;2081099;28;20217;-71
2021/05/24 02:45:27;;;;;;;2.40;1.10;;;4.40;99.90;;;;;;2081325;28;20179;-71
2021/05/24 02:46:27;;;;;;;1.63;1.17;;;4.40;99.90;;;;;;2081121;28;20655;-71
2021/05/24 02:47:28;;;;;;;1.60;1.30;;;4.40;99.90;;;;;;2090178;28;20206;-71
2021/05/24 02:48:29;;;;;;;1.87;1.30;;;4.40;99.90;;;;;;2090016;28;20184;-71
2021/05/24 02:49:29;;;;;;;1.43;1.30;;;4.40;99.90;;;;;;2090130;28;20260;-71
2021/05/24 02:50:30;;;;;;;1.50;1.20;;;4.40;99.90;;;;;;2090033;28;20215;-71
2021/05/24 02:51:31;;;;;;;2.07;1.30;;;4.40;99.90;;;;;;2089804;28;20194;-71
2021/05/24 02:52:32;;;;;;;2.53;1.27;;;4.40;99.90;;;;;;2089997;28;20216;-71
2021/05/24 02:53:33;;;;;;;3.33;1.57;;;4.40;99.90;;;;;;2090063;28;20189;-71
2021/05/24 02:54:34;;;;;;;3.15;1.40;;;4.40;99.90;;;;;;2070514;28;20293;-71
2021/05/24 02:55:35;;;;;;;1.20;1.10;;;4.40;99.90;;;;;;2071511;28;20194;-71
2021/05/24 02:56:37;;;;;;;3.40;1.50;;;4.40;99.90;;;;;;2081300;28;20210;-71
2021/05/24 02:57:38;;;;;;;2.30;1.30;;;4.40;99.90;;;;;;2078931;28;20186;-71
2021/05/24 02:58:38;;;;;;;4.22;1.60;;;4.50;99.90;;;;;;2081173;28;20182;-71
2021/05/24 02:59:39;;;;;;;2.30;1.50;;;4.40;99.90;;;;;;2090032;28;20215;-70
2021/05/24 03:00:40;;;;;;;2.13;1.50;;;4.40;99.90;;;;;;2089943;28;20208;-71
2021/05/24 03:01:41;;;;;;;2.10;1.40;;;4.40;99.90;;;;;;2081002;28;20550;-70
2021/05/24 03:02:46;;;;;;;2.20;1.40;;;4.30;99.90;;;;;;2081001;28;20175;-70
2021/05/24 03:03:53;;;;;;;2.35;1.45;;;4.40;99.90;;;;;;2090049;28;20161;-71
2021/05/24 03:04:55;;;;;;;1.67;1.30;;;4.40;99.90;;;;;;2081063;28;20174;-70
2021/05/24 03:05:56;;;;;;;3.55;1.40;;;4.40;99.90;;;;;;2082298;28;20184;-70
2021/05/24 03:06:56;;;;;;;1.87;1.30;;;4.40;99.90;;;;;;2089963;28;20826;-70
2021/05/24 03:08:00;;;;;;;2.28;1.30;;;4.50;99.90;;;;;;2089880;28;20619;-70
2021/05/24 03:09:00;;;;;;;2.05;1.10;;;4.40;99.90;;;;;;2089821;28;20268;-71
2021/05/24 03:10:01;;;;;;;1.77;1.30;;;4.40;99.90;;;;;;2081147;28;20178;-70
2021/05/24 03:11:02;;;;;;;2.07;1.50;;;4.40;99.90;;;;;;2072874;28;20873;-70
2021/05/24 03:12:03;;;;;;;2.63;1.40;;;4.30;99.90;;;;;;2072739;28;20175;-71
2021/05/24 03:13:04;;;;;;;2.05;1.20;;;4.40;99.90;;;;;;2080924;28;20254;-71
2021/05/24 03:14:05;;;;;;;2.30;1.47;;;4.40;99.90;;;;;;2089883;28;20563;-71
2021/05/24 03:15:06;;;;;;;2.33;1.50;;;4.30;99.90;;;;;;2081078;28;20220;-70
2021/05/24 03:16:07;;;;;;;2.20;1.30;;;4.40;99.90;;;;;;2081308;28;20237;-70
2021/05/24 03:17:08;;;;;;;1.50;1.10;;;4.40;99.90;;;;;;2089879;28;20661;-71
2021/05/24 03:18:09;;;;;;;3.13;1.30;;;4.40;99.90;;;;;;2081194;28;20231;-70
2021/05/24 03:19:10;;;;;;;2.63;1.67;;;4.40;99.90;;;;;;2080949;28;20617;-70
2021/05/24 03:20:13;;;;;;;1.53;1.20;;;4.40;99.90;;;;;;2090004;28;20219;-71
2021/05/24 03:21:14;;;;;;;3.10;1.40;;;4.40;99.90;;;;;;2080872;28;20183;-70
2021/05/24 03:22:15;;;;;;;1.87;1.13;;;4.40;99.90;;;;;;2081265;28;20193;-70
2021/05/24 03:23:15;;;;;;;1.73;1.30;;;4.40;99.90;;;;;;2090037;28;20241;-70
2021/05/24 03:24:16;;;;;;;2.13;1.40;;;4.50;99.90;;;;;;2089861;28;20235;-71
2021/05/24 03:25:18;;;;;;;1.30;1.20;;;4.50;99.90;;;;;;2081117;28;20185;-70
2021/05/24 03:26:18;;;;;;;3.75;1.25;;;4.50;99.90;;;;;;2081289;28;20189;-71
2021/05/24 03:27:19;;;;;;;1.60;1.30;;;4.50;99.90;;;;;;2090017;28;20604;-71
2021/05/24 03:28:20;;;;;;;2.17;1.50;;;4.50;99.90;;;;;;2089812;28;20191;-71
2021/05/24 03:29:21;;;;;;;3.08;1.27;;;4.40;99.90;;;;;;2080961;28;20180;-70
2021/05/24 03:30:21;;;;;;;2.13;1.43;;;4.40;99.90;;;;;;2080870;28;20190;-71
2021/05/24 03:31:22;;;;;;;1.93;0.93;;;4.40;99.90;;;;;;2089181;28;20690;-71
2021/05/24 03:32:23;;;;;;;2.53;1.73;;;4.40;99.90;;;;;;2089751;28;20178;-71
2021/05/24 03:33:24;;;;;;;1.30;1.20;;;4.40;99.90;;;;;;2089772;28;20217;-71
2021/05/24 03:34:24;;;;;;;2.27;1.27;;;4.40;99.90;;;;;;2089641;28;20199;-71
2021/05/24 03:35:25;;;;;;;2.47;1.20;;;4.50;99.90;;;;;;2089765;28;20218;-71
2021/05/24 03:36:26;;;;;;;1.00;0.90;;;4.40;99.90;;;;;;2089670;28;20186;-71
2021/05/24 03:37:27;;;;;;;1.60;1.40;;;4.40;99.90;;;;;;2089796;28;20259;-71
2021/05/24 03:38:27;;;;;;;1.73;1.30;;;4.40;99.90;;;;;;2089673;28;20179;-71
2021/05/24 03:39:28;;;;;;;2.73;1.40;;;4.40;99.90;;;;;;2080955;28;20426;-71
2021/05/24 03:40:29;;;;;;;2.10;1.40;;;4.40;99.90;;;;;;2080831;28;20383;-71
2021/05/24 03:41:30;;;;;;;2.33;1.17;;;4.40;99.90;;;;;;2089615;28;20170;-71
2021/05/24 03:42:30;;;;;;;3.20;1.50;;;4.40;99.90;;;;;;2089764;28;20212;-71
2021/05/24 03:43:32;;;;;;;2.30;1.40;;;4.40;99.90;;;;;;2089614;28;20170;-71
2021/05/24 03:44:35;;;;;;;2.88;1.50;;;4.40;99.90;;;;;;2089737;28;20171;-71
2021/05/24 03:45:38;;;;;;;3.88;1.60;;;4.40;99.90;;;;;;2089651;28;20262;-71
2021/05/24 03:46:39;;;;;;;2.00;1.17;;;4.40;99.90;;;;;;2089661;28;20187;-70
2021/05/24 03:47:40;;;;;;;3.73;1.43;;;4.40;99.90;;;;;;2089771;28;20656;-70
2021/05/24 03:48:41;;;;;;;1.53;1.30;;;4.40;99.90;;;;;;2089599;28;20283;-71
2021/05/24 03:49:45;;;;;;;1.88;1.52;;;4.40;99.90;;;;;;2089828;28;20324;-70
2021/05/24 03:50:46;;;;;;;4.35;1.60;;;4.40;99.90;;;;;;2080729;28;20183;-71
2021/05/24 03:51:47;;;;;;;1.60;1.33;;;4.40;99.90;;;;;;2080932;28;20183;-71
2021/05/24 03:52:47;;;;;;;2.40;1.47;;;4.40;99.90;;;;;;2089462;28;20206;-71
2021/05/24 03:53:48;;;;;;;1.87;1.43;;;4.50;99.90;;;;;;2089614;28;20279;-70
2021/05/24 03:54:49;;;;;;;1.93;1.33;;;4.50;99.90;;;;;;2089577;28;20232;-71
2021/05/24 03:55:49;;;;;;;3.10;1.40;;;4.40;99.90;;;;;;2089651;28;20184;-71
2021/05/24 03:56:50;;;;;;;1.53;1.30;;;4.50;99.90;;;;;;2089414;28;20183;-71
2021/05/24 03:57:53;;;;;;;1.83;1.40;;;4.50;99.90;;;;;;2089605;28;20184;-71
2021/05/24 03:58:54;;;;;;;2.42;1.45;;;4.50;99.90;;;;;;2088769;28;20231;-71
2021/05/24 03:59:55;;;;;;;1.83;1.30;;;4.50;99.90;;;;;;2088977;28;20629;-71
2021/05/24 04:00:55;;;;;;;1.57;1.20;;;4.60;99.90;;;;;;2088846;28;20170;-71
2021/05/24 04:01:56;;;;;;;2.80;1.37;;;4.60;99.90;;;;;;2089122;28;20210;-71
2021/05/24 04:02:57;;;;;;;1.70;1.30;;;4.60;99.90;;;;;;2089553;28;20228;-72
2021/05/24 04:03:58;;;;;;;1.60;1.20;;;4.60;99.90;;;;;;2080723;28;20212;-71
2021/05/24 04:05:01;;;;;;;2.33;1.30;;;4.70;99.90;;;;;;2080678;28;20195;-71
2021/05/24 04:06:05;;;;;;;1.50;1.13;;;4.70;99.90;;;;;;2080393;28;20179;-71
2021/05/24 04:07:07;;;;;;;1.35;1.20;;;4.70;99.90;;;;;;2077422;28;20638;-71
2021/05/24 04:08:09;;;;;;;2.47;1.42;;;4.80;99.90;;;;;;2089471;28;20300;-71
2021/05/24 04:09:10;;;;;;;1.83;1.10;;;4.80;99.90;;;;;;2080620;28;20187;-71
2021/05/24 04:10:11;;;;;;;3.80;1.30;;;4.80;99.90;;;;;;2080859;28;20236;-71
2021/05/24 04:11:14;;;;;;;2.22;1.35;;;4.80;99.90;;;;;;2080440;28;20732;-71
2021/05/24 04:12:15;;;;;;;1.58;1.35;;;4.80;99.90;;;;;;2080890;28;20649;-71
2021/05/24 04:13:16;;;;;;;1.90;1.35;;;4.90;99.90;;;;;;2089218;28;20890;-71
2021/05/24 04:14:17;;;;;;;1.57;1.10;;;4.90;99.90;;;;;;2080547;28;20249;-71
2021/05/24 04:15:18;;;;;;;1.30;1.20;;;4.90;99.90;;;;;;2080496;28;20453;-71
2021/05/24 04:16:20;;;;;;;1.92;1.20;;;5.00;99.90;;;;;;2080683;28;20192;-71
2021/05/24 04:17:22;;;;;;;2.15;1.10;;;5.00;99.90;;;;;;2080712;28;20592;-71
2021/05/24 04:18:29;;;;;;;1.30;1.02;;;5.00;99.90;;;;;;2080677;28;20196;-71
2021/05/24 04:19:30;;;;;;;3.08;1.25;;;5.00;99.90;;;;;;2080521;28;20729;-71
2021/05/24 04:20:31;;;;;;;1.30;1.20;;;5.00;99.90;;;;;;2081057;28;20183;-71
2021/05/24 04:21:32;;;;;;;2.57;1.23;;;5.00;99.90;;;;;;2080392;28;20578;-71
2021/05/24 04:22:33;;;;;;;2.10;1.30;;;5.10;99.90;;;;;;2080523;28;20191;-71
2021/05/24 04:23:33;;;;;;;1.40;0.98;;;5.10;99.90;;;;;;2080415;28;20180;-71
2021/05/24 04:24:34;;;;;;;1.63;1.10;;;5.10;99.90;;;;;;2089367;28;20183;-71
2021/05/24 04:25:35;;;;;;;1.50;1.20;;;5.00;99.90;;;;;;2089353;28;20804;-71
2021/05/24 04:26:36;;;;;;;3.97;1.30;;;5.10;99.90;;;;;;2089280;28;20300;-71
2021/05/24 04:27:37;;;;;;;1.50;1.30;;;5.10;99.90;;;;;;2089328;28;20183;-71
2021/05/24 04:28:38;;;;;;;2.43;1.10;;;5.00;99.90;;;;;;2080396;28;20188;-71
2021/05/24 04:29:39;;;;;;;1.10;1.00;;;5.10;99.90;;;;;;2080411;28;20230;-71
2021/05/24 04:30:41;;;;;;;2.00;1.30;;;5.10;99.90;;;;;;2080403;28;20208;-71
2021/05/24 04:31:42;;;;;;;1.20;0.98;;;5.10;99.90;;;;;;2080282;28;20256;-71
2021/05/24 04:32:43;;;;;;;1.30;1.00;;;5.10;99.90;;;;;;2080335;28;20192;-71
2021/05/24 04:33:43;;;;;;;2.35;1.20;;;5.20;99.90;;;;;;2089186;28;20711;-71
2021/05/24 04:34:44;;;;;;;3.00;1.43;;;5.20;99.90;;;;;;2089159;28;20195;-71
2021/05/24 04:35:45;;;;;;;1.30;1.20;;;5.30;99.90;;;;;;2089290;28;20266;-71
2021/05/24 04:36:45;;;;;;;1.93;1.17;;;5.30;99.90;;;;;;2089157;28;20270;-71
2021/05/24 04:37:46;;;;;;;1.57;1.20;;;5.30;99.90;;;;;;2080487;28;20262;-71
2021/05/24 04:38:47;;;;;;;2.17;1.10;;;5.30;99.90;;;;;;2081188;28;20188;-71
2021/05/24 04:39:48;;;;;;;1.30;1.17;;;5.30;99.90;;;;;;2089204;28;20219;-71
2021/05/24 04:40:49;;;;;;;1.10;1.00;;;5.30;99.90;;;;;;2089180;28;20425;-71
2021/05/24 04:41:49;;;;;;;1.63;1.20;;;5.30;99.90;;;;;;2080205;28;20208;-71
2021/05/24 04:42:50;;;;;;;2.37;1.13;;;5.40;99.90;;;;;;2080353;28;20194;-71
2021/05/24 04:43:56;;;;;;;3.00;1.00;;;5.40;99.90;;;;;;2080310;28;20218;-71
2021/05/24 04:44:56;;;;;;;3.15;1.10;;;5.50;99.90;;;;;;2080942;28;20176;-71
2021/05/24 04:45:57;;;;;;;3.87;1.20;;;5.60;99.90;;;;;;2089184;28;20222;-71
2021/05/24 04:46:58;;;;;;;2.27;1.10;;;5.60;99.90;;;;;;2089122;28;20226;-71
2021/05/24 04:47:58;;;;;;;2.87;1.07;;;5.60;99.90;;;;;;2089289;28;20615;-71
2021/05/24 04:48:59;;;;;;;1.40;1.20;;;5.70;99.90;;;;;;2089102;28;20171;-71
2021/05/24 04:50:00;;;;;;;2.67;1.00;;;5.60;99.90;;;;;;2089224;28;20536;-71
2021/05/24 04:51:04;;;;;;;1.23;0.90;;;5.70;99.90;;;;;;2088987;28;20183;-71
2021/05/24 04:52:05;;;;;;;2.35;1.17;;;5.70;99.90;;;;;;2089107;28;20187;-71
2021/05/24 04:53:05;;;;;;;2.37;1.23;;;5.70;99.90;;;;;;2080222;28;20220;-71
2021/05/24 04:54:07;;;;;;;1.23;1.03;;;5.70;99.90;;;;;;2080369;28;20201;-71
2021/05/24 04:55:09;;;;;;;2.92;1.13;;;5.80;99.90;;;;;;2077406;28;20196;-72
2021/05/24 04:56:10;;;;;;;1.63;1.10;;;5.90;99.90;;;;;;2068780;28;20199;-71
2021/05/24 04:57:12;;;;;;;1.40;1.10;;;5.90;99.90;;;;;;2072106;28;20211;-71
2021/05/24 04:58:12;;;;;;;2.30;1.00;;;5.90;99.90;;;;;;2064151;28;20281;-71
2021/05/24 04:59:13;;;;;;;1.40;1.30;;;5.90;99.90;;;;;;2064041;28;20371;-72
2021/05/24 05:00:15;;;;;;;1.73;0.93;;;6.00;99.90;;;;;;2072940;28;20688;-71
2021/05/24 05:01:15;;;;;;;1.95;1.02;;;6.00;99.90;;;;;;2072463;28;20703;-71
2021/05/24 05:02:16;;;;;;;3.57;1.03;;;6.00;99.90;;;;;;2064222;28;20181;-71
2021/05/24 05:03:17;;;;;;;1.10;0.90;;;6.00;99.90;;;;;;2064088;28;20579;-71
2021/05/24 05:04:18;;;;;;;2.47;1.30;;;6.00;99.90;;;;;;2064020;28;20221;-71
2021/05/24 05:05:19;;;;;;;1.92;1.10;;;6.10;99.90;;;;;;2063731;28;20232;-71
2021/05/24 05:06:20;;;;;;;1.93;1.13;;;6.10;99.90;;;;;;2072799;28;20197;-71
2021/05/24 05:07:20;;;;;;;1.03;0.90;;;6.10;99.90;;;;;;2072605;28;20593;-71
2021/05/24 05:08:21;;;;;;;1.83;0.90;;;6.10;99.90;;;;;;2064030;28;20387;-71
2021/05/24 05:09:22;;;;;;;2.30;0.90;;;6.20;99.90;;;;;;2055956;28;20200;-71
2021/05/24 05:10:23;;;;;;;0.90;0.90;;;6.30;99.90;;;;;;2055926;28;20186;-71
2021/05/24 05:11:24;;;;;;;1.77;1.00;;;6.30;99.90;;;;;;2063900;28;20260;-71
2021/05/24 05:12:25;;;;;;;1.40;0.90;;;6.30;99.90;;;;;;2071486;28;20187;-71
2021/05/24 05:13:26;;;;;;;2.63;1.20;;;6.40;99.90;;;;;;2063620;28;20213;-71
2021/05/24 05:14:27;;;;;;;1.37;1.10;;;6.40;99.90;;;;;;2055812;28;20206;-71
2021/05/24 05:15:28;;;;;;;1.93;1.00;;;6.50;99.90;;;;;;2064042;28;20175;-71
2021/05/24 05:16:30;;;;;;;3.65;1.23;;;6.50;99.90;;;;;;2072073;28;20188;-71
2021/05/24 05:17:30;;;;;;;1.30;1.00;;;6.50;99.90;;;;;;2071909;28;20186;-71
2021/05/24 05:18:31;;;;;;;1.00;0.93;;;6.60;99.90;;;;;;2063938;28;20206;-71
2021/05/24 05:19:32;;;;;;;2.03;0.93;;;6.50;99.90;;;;;;2072708;28;20264;-71
2021/05/24 05:20:33;;;;;;;1.57;1.10;;;6.60;99.90;;;;;;2072565;28;20178;-71
2021/05/24 05:21:35;;;;;;;2.10;1.03;;;6.70;99.90;;;;;;2072524;28;20656;-71
2021/05/24 05:22:36;;;;;;;1.10;1.00;;;6.70;99.90;;;;;;2072478;28;20174;-71
2021/05/24 05:23:36;;;;;;;1.25;1.00;;;6.80;99.90;;;;;;2072445;28;20220;-71
2021/05/24 05:24:37;;;;;;;1.10;1.00;;;6.80;99.90;;;;;;2072514;28;20888;-71